createdAt,value
2018-04-17T00:02:17.416Z,19.03
2018-04-17T00:04:46.102Z,19.20
2018-04-17T00:07:14.841Z,22.80
2018-04-17T00:09:43.127Z,21.03
2018-04-17T00:12:11.451Z,22.07
2018-04-17T00:14:40.137Z,22.83
2018-04-17T00:17:08.461Z,23.40
2018-04-17T00:19:36.809Z,21.40
2018-04-17T00:22:05.098Z,21.10
2018-04-17T00:24:33.409Z,22.57
2018-04-17T00:27:03.834Z,20.57
2018-04-17T00:29:32.135Z,24.00
2018-04-17T00:32:00.843Z,25.20
2018-04-17T00:34:29.131Z,20.90
2018-04-17T00:36:57.425Z,20.67
2018-04-17T00:39:25.768Z,23.67
2018-04-17T00:41:54.096Z,24.70
2018-04-17T00:44:22.387Z,22.77
2018-04-17T00:46:50.689Z,22.60
2018-04-17T00:49:19.369Z,23.37
2018-04-17T00:51:48.054Z,19.90
2018-04-17T00:54:17.038Z,20.07
2018-04-17T00:56:45.751Z,21.80
2018-04-17T00:59:14.167Z,21.23
2018-04-17T01:01:42.490Z,18.40
2018-04-17T01:04:11.175Z,23.20
2018-04-17T01:06:39.894Z,19.60
2018-04-17T01:09:08.192Z,18.90
2018-04-17T01:11:36.582Z,18.70
2018-04-17T01:14:04.889Z,18.73
2018-04-17T01:16:33.584Z,17.93
2018-04-17T01:19:02.332Z,25.23
2018-04-17T01:21:30.671Z,24.40
2018-04-17T01:23:58.965Z,23.93
2018-04-17T01:26:27.254Z,21.47
2018-04-17T01:28:55.589Z,22.27
2018-04-17T01:31:23.884Z,22.67
2018-04-17T01:33:52.231Z,19.73
2018-04-17T01:36:20.933Z,21.80
2018-04-17T01:38:49.225Z,21.10
2018-04-17T01:41:17.571Z,20.30
2018-04-17T01:43:46.270Z,16.13
2018-04-17T01:46:14.594Z,21.70
2018-04-17T01:48:42.896Z,18.43
2018-04-17T01:51:11.173Z,17.60
2018-04-17T01:53:39.482Z,19.20
2018-04-17T01:56:07.783Z,16.63
2018-04-17T01:58:36.070Z,19.10
2018-04-17T02:01:04.378Z,20.63
2018-04-17T02:03:32.668Z,20.70
2018-04-17T02:06:01.351Z,20.73
2018-04-17T02:08:30.058Z,21.90
2018-04-17T02:10:58.356Z,21.97
2018-04-17T02:13:26.662Z,21.97
2018-04-17T02:15:54.966Z,22.30
2018-04-17T02:18:23.251Z,24.17
2018-04-17T02:20:51.930Z,24.80
2018-04-17T02:23:20.651Z,20.27
2018-04-17T02:25:48.980Z,21.70
2018-04-17T02:28:17.337Z,23.67
2018-04-17T02:30:45.687Z,19.50
2018-04-17T02:33:14.316Z,21.33
2018-04-17T02:35:42.617Z,21.70
2018-04-17T02:38:11.324Z,21.80
2018-04-17T02:40:39.615Z,20.37
2018-04-17T02:43:07.966Z,21.43
2018-04-17T02:45:36.686Z,21.00
2018-04-17T02:48:04.989Z,20.87
2018-04-17T02:50:33.285Z,22.37
2018-04-17T02:53:02.023Z,23.10
2018-04-17T02:55:30.318Z,21.60
2018-04-17T02:57:59.488Z,23.23
2018-04-17T03:00:27.801Z,23.00
2018-04-17T03:02:56.325Z,23.23
2018-04-17T03:05:25.003Z,21.70
2018-04-17T03:07:53.719Z,22.67
2018-04-17T03:10:22.035Z,22.23
2018-04-17T03:12:50.379Z,22.83
2018-04-17T03:15:18.697Z,21.80
2018-04-17T03:17:47.011Z,17.77
2018-04-17T03:20:17.037Z,20.20
2018-04-17T03:22:46.206Z,21.43
2018-04-17T03:25:14.554Z,24.43
2018-04-17T03:27:43.034Z,21.33
2018-04-17T03:30:11.680Z,21.60
2018-04-17T03:32:39.965Z,23.73
2018-04-17T03:35:08.249Z,23.77
2018-04-17T03:37:36.574Z,24.33
2018-04-17T03:40:05.265Z,21.83
2018-04-17T03:42:33.939Z,22.03
2018-04-17T03:45:02.251Z,22.80
2018-04-17T03:47:30.541Z,25.23
2018-04-17T03:49:59.717Z,21.17
2018-04-17T03:52:28.028Z,22.90
2018-04-17T03:54:56.741Z,23.13
2018-04-17T03:57:25.434Z,19.17
2018-04-17T03:59:53.834Z,23.80
2018-04-17T04:02:22.530Z,21.10
2018-04-17T04:04:51.080Z,23.00
2018-04-17T04:07:19.394Z,22.07
2018-04-17T04:09:47.709Z,24.50
2018-04-17T04:12:15.994Z,21.80
2018-04-17T04:14:44.316Z,22.90
2018-04-17T04:17:24.381Z,24.37
2018-04-17T04:20:04.594Z,24.03
2018-04-17T04:22:44.752Z,21.47
2018-04-17T04:25:24.964Z,21.33
2018-04-17T04:27:53.295Z,16.00
2018-04-17T04:30:21.563Z,18.43
2018-04-17T04:32:49.887Z,21.43
2018-04-17T04:35:18.170Z,18.90
2018-04-17T04:37:46.469Z,18.50
2018-04-17T04:40:15.064Z,21.57
2018-04-17T04:42:43.379Z,20.33
2018-04-17T04:45:11.653Z,19.57
2018-04-17T04:47:39.982Z,21.00
2018-04-17T04:50:08.278Z,21.50
2018-04-17T04:52:36.857Z,22.13
2018-04-17T04:55:05.188Z,18.97
2018-04-17T04:57:33.492Z,22.60
2018-04-17T05:00:01.807Z,26.13
2018-04-17T05:02:30.528Z,22.60
2018-04-17T05:04:58.819Z,21.63
2018-04-17T05:07:27.674Z,21.00
2018-04-17T05:09:55.975Z,23.60
2018-04-17T05:12:24.278Z,24.30
2018-04-17T05:14:52.549Z,26.60
2018-04-17T05:17:21.230Z,25.63
2018-04-17T05:19:49.657Z,26.00
2018-04-17T05:22:18.686Z,23.50
2018-04-17T05:24:47.219Z,24.10
2018-04-17T05:27:17.020Z,22.00
2018-04-17T05:29:46.535Z,23.67
2018-04-17T05:32:14.817Z,22.07
2018-04-17T05:34:43.105Z,23.67
2018-04-17T05:37:11.443Z,22.37
2018-04-17T05:39:39.729Z,22.90
2018-04-17T05:42:08.217Z,19.27
2018-04-17T05:44:37.299Z,22.50
2018-04-17T05:47:07.683Z,22.33
2018-04-17T05:49:35.996Z,21.67
2018-04-17T05:52:04.292Z,22.47
2018-04-17T05:54:32.580Z,23.70
2018-04-17T05:57:01.300Z,22.20
2018-04-17T05:59:29.943Z,24.57
2018-04-17T06:01:58.305Z,23.80
2018-04-17T06:04:26.755Z,25.40
2018-04-17T06:06:55.065Z,27.40
2018-04-17T06:09:23.365Z,25.83
2018-04-17T06:11:52.044Z,23.77
2018-04-17T06:14:20.392Z,25.77
2018-04-17T06:16:48.678Z,27.97
2018-04-17T06:19:16.964Z,27.80
2018-04-17T06:21:45.274Z,27.60
2018-04-17T06:24:13.610Z,27.00
2018-04-17T06:26:41.983Z,27.90
2018-04-17T06:29:10.416Z,15.17
2018-04-17T06:31:38.744Z,17.13
2018-04-17T06:34:07.116Z,11.10
2018-04-17T06:36:35.866Z,14.57
2018-04-17T06:39:04.134Z,13.10
2018-04-17T06:41:32.560Z,16.53
2018-04-17T06:44:00.871Z,19.10
2018-04-17T06:46:29.578Z,22.70
2018-04-17T06:48:58.003Z,13.50
2018-04-17T06:51:26.601Z,17.80
2018-04-17T06:53:54.883Z,21.73
2018-04-17T06:56:23.183Z,13.80
2018-04-17T06:58:52.029Z,13.33
2018-04-17T07:01:20.628Z,17.17
2018-04-17T07:03:48.991Z,15.00
2018-04-17T07:06:17.610Z,16.17
2018-04-17T07:08:45.917Z,12.93
2018-04-17T07:11:14.208Z,14.60
2018-04-17T07:13:42.577Z,16.17
2018-04-17T07:16:10.904Z,15.93
2018-04-17T07:18:39.264Z,16.60
2018-04-17T07:21:07.981Z,16.90
2018-04-17T07:23:36.293Z,17.53
2018-04-17T07:26:04.599Z,15.10
2018-04-17T07:28:32.881Z,15.20
2018-04-17T07:31:01.205Z,15.70
2018-04-17T07:33:29.515Z,14.70
2018-04-17T07:35:57.826Z,15.57
2018-04-17T07:38:26.159Z,13.70
2018-04-17T07:40:54.515Z,12.53
2018-04-17T07:43:22.840Z,12.97
2018-04-17T07:45:51.223Z,13.97
2018-04-17T07:48:31.444Z,11.70
2018-04-17T07:50:59.854Z,12.20
2018-04-17T07:53:28.232Z,11.97
2018-04-17T07:55:56.574Z,12.47
2018-04-17T07:58:25.212Z,12.60
2018-04-17T08:00:53.506Z,12.43
2018-04-17T08:03:22.259Z,13.17
2018-04-17T08:05:50.624Z,10.40
2018-04-17T08:08:18.944Z,10.50
2018-04-17T08:10:47.516Z,10.67
2018-04-17T08:13:15.847Z,10.20
2018-04-17T08:15:44.125Z,8.57
2018-04-17T08:18:12.649Z,8.40
2018-04-17T08:20:40.982Z,7.50
2018-04-17T08:23:09.277Z,7.47
2018-04-17T08:25:42.229Z,6.30
2018-04-17T08:28:10.523Z,7.10
2018-04-17T08:30:38.805Z,6.23
2018-04-17T08:33:07.130Z,6.37
2018-04-17T08:35:35.816Z,5.70
2018-04-17T08:38:04.089Z,5.80
2018-04-17T08:40:32.669Z,5.80
2018-04-17T08:43:00.946Z,5.10
2018-04-17T08:45:29.229Z,5.00
2018-04-17T08:47:58.466Z,4.80
2018-04-17T08:50:26.993Z,4.10
2018-04-17T08:52:55.278Z,4.13
2018-04-17T08:55:23.590Z,3.67
2018-04-17T08:57:51.883Z,3.37
2018-04-17T09:00:20.406Z,3.30
2018-04-17T09:02:48.768Z,3.00
2018-04-17T09:05:17.040Z,3.37
2018-04-17T09:07:45.329Z,3.20
2018-04-17T09:10:13.919Z,3.00
2018-04-17T09:12:42.281Z,2.80
2018-04-17T09:15:10.877Z,3.03
2018-04-17T09:17:39.242Z,2.90
2018-04-17T09:20:07.531Z,3.30
2018-04-17T09:22:35.808Z,3.40
2018-04-17T09:25:04.100Z,3.70
2018-04-17T09:27:32.731Z,4.20
2018-04-17T09:30:01.048Z,3.30
2018-04-17T09:32:29.347Z,3.60
2018-04-17T09:34:58.018Z,2.73
2018-04-17T09:37:26.297Z,3.40
2018-04-17T09:39:55.468Z,3.10
2018-04-17T09:42:23.788Z,2.97
2018-04-17T09:44:52.462Z,2.80
2018-04-17T09:47:21.181Z,2.80
2018-04-17T09:49:49.502Z,2.50
2018-04-17T09:52:17.817Z,2.60
2018-04-17T09:54:46.115Z,2.80
2018-04-17T09:57:14.387Z,2.60
2018-04-17T09:59:42.673Z,2.63
2018-04-17T10:02:10.965Z,2.70
2018-04-17T10:04:40.071Z,2.30
2018-04-17T10:07:08.671Z,2.50
2018-04-17T10:09:36.958Z,2.63
2018-04-17T10:12:05.258Z,2.90
2018-04-17T10:14:33.944Z,3.17
2018-04-17T10:17:02.682Z,2.70
2018-04-17T10:19:31.002Z,2.50
2018-04-17T10:21:59.678Z,2.80
2018-04-17T10:24:28.493Z,2.53
2018-04-17T10:26:56.758Z,2.70
2018-04-17T10:29:25.458Z,2.50
2018-04-17T10:31:53.731Z,2.67
2018-04-17T10:34:22.007Z,2.40
2018-04-17T10:36:50.289Z,2.40
2018-04-17T10:39:18.608Z,2.30
2018-04-17T10:41:46.976Z,2.07
2018-04-17T10:44:15.273Z,2.13
2018-04-17T10:46:43.545Z,2.33
2018-04-17T10:49:11.811Z,2.13
2018-04-17T10:51:40.601Z,2.20
2018-04-17T10:54:09.012Z,2.13
2018-04-17T10:56:37.342Z,1.80
2018-04-17T10:59:05.720Z,2.10
2018-04-17T11:01:34.053Z,2.00
2018-04-17T11:04:02.807Z,2.47
2018-04-17T11:06:31.089Z,1.90
2018-04-17T11:08:59.362Z,2.70
2018-04-17T11:11:27.647Z,2.67
2018-04-17T11:13:55.928Z,1.90
2018-04-17T11:16:24.905Z,2.50
2018-04-17T11:18:53.201Z,2.50
2018-04-17T11:21:21.920Z,2.40
2018-04-17T11:23:51.887Z,2.33
2018-04-17T11:26:20.783Z,2.07
2018-04-17T11:28:49.078Z,2.30
2018-04-17T11:31:17.753Z,2.30
2018-04-17T11:33:46.618Z,1.93
2018-04-17T11:36:14.888Z,2.30
2018-04-17T11:38:43.177Z,1.90
2018-04-17T11:41:11.493Z,1.87
2018-04-17T11:43:39.784Z,2.50
2018-04-17T11:46:08.100Z,2.30
2018-04-17T11:48:36.420Z,2.33
2018-04-17T11:51:04.723Z,2.10
2018-04-17T11:53:33.247Z,2.47
2018-04-17T11:56:01.540Z,2.67
2018-04-17T11:58:29.811Z,2.57
2018-04-17T12:00:58.118Z,2.60
2018-04-17T12:03:26.457Z,2.67
2018-04-17T12:05:54.737Z,2.20
2018-04-17T12:08:23.393Z,2.40
2018-04-17T12:10:51.769Z,2.60
2018-04-17T12:13:20.057Z,2.23
2018-04-17T12:15:48.431Z,2.17
2018-04-17T12:18:16.708Z,2.30
2018-04-17T12:20:45.009Z,3.00
2018-04-17T12:23:13.391Z,2.67
2018-04-17T12:25:41.793Z,2.17
2018-04-17T12:28:10.477Z,2.53
2018-04-17T12:30:39.213Z,2.60
2018-04-17T12:33:07.869Z,2.20
2018-04-17T12:35:36.632Z,2.40
2018-04-17T12:38:05.185Z,2.30
2018-04-17T12:40:33.483Z,2.40
2018-04-17T12:43:02.181Z,2.30
2018-04-17T12:45:30.854Z,2.27
2018-04-17T12:48:00.444Z,2.20
2018-04-17T12:50:28.711Z,2.07
2018-04-17T12:52:57.024Z,2.27
2018-04-17T12:55:25.323Z,2.30
2018-04-17T12:57:53.620Z,2.80
2018-04-17T13:00:22.645Z,2.20
2018-04-17T13:02:50.927Z,2.73
2018-04-17T13:05:19.209Z,2.10
2018-04-17T13:07:47.996Z,2.20
2018-04-17T13:10:16.223Z,2.40
2018-04-17T13:12:44.753Z,2.40
2018-04-17T13:15:13.442Z,2.43
2018-04-17T13:17:42.108Z,2.00
2018-04-17T13:20:10.390Z,2.17
2018-04-17T13:22:38.672Z,2.20
2018-04-17T13:25:07.351Z,2.23
2018-04-17T13:27:36.039Z,1.90
2018-04-17T13:30:04.333Z,2.50
2018-04-17T13:32:32.647Z,2.50
2018-04-17T13:35:01.167Z,2.30
2018-04-17T13:37:29.475Z,2.00
2018-04-17T13:39:58.144Z,2.10
2018-04-17T13:42:26.884Z,2.60
2018-04-17T13:44:55.160Z,2.80
2018-04-17T13:47:23.437Z,2.60
2018-04-17T13:49:52.053Z,2.80
2018-04-17T13:52:20.352Z,2.30
2018-04-17T13:54:49.030Z,2.20
2018-04-17T13:57:17.602Z,2.47
2018-04-17T13:59:46.293Z,2.83
2018-04-17T14:02:14.575Z,2.00
2018-04-17T14:04:43.267Z,2.30
2018-04-17T14:07:11.956Z,2.60
2018-04-17T14:09:40.699Z,2.23
2018-04-17T14:12:09.077Z,2.77
2018-04-17T14:14:37.457Z,2.53
2018-04-17T14:17:05.757Z,2.50
2018-04-17T14:19:34.060Z,2.43
2018-04-17T14:22:02.332Z,2.60
2018-04-17T14:24:31.410Z,2.47
2018-04-17T14:26:59.753Z,2.20
2018-04-17T14:29:28.033Z,2.33
2018-04-17T14:31:56.325Z,2.40
2018-04-17T14:34:24.904Z,2.40
2018-04-17T14:36:53.190Z,2.20
2018-04-17T14:39:21.452Z,2.30
2018-04-17T14:41:49.803Z,2.23
2018-04-17T14:44:18.077Z,2.20
2018-04-17T14:46:46.351Z,2.57
2018-04-17T14:49:14.645Z,2.70
2018-04-17T14:51:42.929Z,2.40
2018-04-17T14:54:11.212Z,2.57
2018-04-17T14:56:39.511Z,2.50
2018-04-17T14:59:07.779Z,2.80
2018-04-17T15:01:36.068Z,2.30
2018-04-17T15:04:04.745Z,2.67
2018-04-17T15:06:33.016Z,2.70
2018-04-17T15:09:01.346Z,2.67
2018-04-17T15:11:29.608Z,2.67
2018-04-17T15:13:57.911Z,2.77
2018-04-17T15:16:26.205Z,2.87
2018-04-17T15:18:54.525Z,2.30
2018-04-17T15:21:23.241Z,2.90
2018-04-17T15:23:51.554Z,2.50
2018-04-17T15:26:19.837Z,2.80
2018-04-17T15:28:48.137Z,2.70
2018-04-17T15:31:16.448Z,3.13
2018-04-17T15:33:44.715Z,2.50
2018-04-17T15:36:13.026Z,2.40
2018-04-17T15:38:41.324Z,2.40
2018-04-17T15:41:10.016Z,2.63
2018-04-17T15:43:38.778Z,2.83
2018-04-17T15:46:07.604Z,2.50
2018-04-17T15:48:36.386Z,3.13
2018-04-17T15:51:05.077Z,2.57
2018-04-17T15:53:33.754Z,2.60
2018-04-17T15:56:02.461Z,2.50
2018-04-17T15:58:30.772Z,3.40
2018-04-17T16:00:59.075Z,2.47
2018-04-17T16:03:27.404Z,2.83
2018-04-17T16:05:55.684Z,2.60
2018-04-17T16:08:23.990Z,3.17
2018-04-17T16:10:52.303Z,2.57
2018-04-17T16:13:20.609Z,2.70
2018-04-17T16:15:48.897Z,3.20
2018-04-17T16:18:17.184Z,3.10
2018-04-17T16:20:45.452Z,2.90
2018-04-17T16:23:13.765Z,2.57
2018-04-17T16:25:42.061Z,2.83
2018-04-17T16:28:10.728Z,2.93
2018-04-17T16:30:38.992Z,2.53
2018-04-17T16:33:07.345Z,2.50
2018-04-17T16:35:35.596Z,2.73
2018-04-17T16:38:03.915Z,2.67
2018-04-17T16:40:32.237Z,2.57
2018-04-17T16:43:00.535Z,2.90
2018-04-17T16:45:28.861Z,3.00
2018-04-17T16:47:57.180Z,3.30
2018-04-17T16:50:25.731Z,2.27
2018-04-17T16:52:54.029Z,2.60
2018-04-17T16:55:22.794Z,2.60
2018-04-17T16:57:51.116Z,3.00
2018-04-17T17:00:19.452Z,3.03
2018-04-17T17:02:47.785Z,3.10
2018-04-17T17:05:16.149Z,3.07
2018-04-17T17:07:44.446Z,2.23
2018-04-17T17:10:12.845Z,2.93
2018-04-17T17:12:41.121Z,2.97
2018-04-17T17:15:09.907Z,2.80
2018-04-17T17:17:38.210Z,2.80
2018-04-17T17:20:06.968Z,3.20
2018-04-17T17:22:35.326Z,2.57
2018-04-17T17:25:03.648Z,2.57
2018-04-17T17:27:31.987Z,3.13
2018-04-17T17:30:00.301Z,2.27
2018-04-17T17:32:29.795Z,2.87
2018-04-17T17:34:59.074Z,3.33
2018-04-17T17:37:27.421Z,2.53
2018-04-17T17:39:55.723Z,3.00
2018-04-17T17:42:24.031Z,2.50
2018-04-17T17:44:52.610Z,2.80
2018-04-17T17:47:20.925Z,3.00
2018-04-17T17:49:49.609Z,2.60
2018-04-17T17:52:17.948Z,2.40
2018-04-17T17:54:46.256Z,2.33
2018-04-17T17:57:14.946Z,3.50
2018-04-17T17:59:43.569Z,2.83
2018-04-17T18:02:11.856Z,3.10
2018-04-17T18:04:40.129Z,3.10
2018-04-17T18:07:08.475Z,3.10
2018-04-17T18:09:37.015Z,3.13
2018-04-17T18:12:05.320Z,3.30
2018-04-17T18:14:33.631Z,3.07
2018-04-17T18:17:01.943Z,3.00
2018-04-17T18:19:30.285Z,2.80
2018-04-17T18:21:58.610Z,3.17
2018-04-17T18:24:26.903Z,3.10
2018-04-17T18:26:55.575Z,3.07
2018-04-17T18:29:24.281Z,3.77
2018-04-17T18:31:52.556Z,2.93
2018-04-17T18:34:20.857Z,2.90
2018-04-17T18:36:49.156Z,3.60
2018-04-17T18:39:17.472Z,3.50
2018-04-17T18:41:46.173Z,3.17
2018-04-17T18:44:14.501Z,3.53
2018-04-17T18:46:42.774Z,3.80
2018-04-17T18:49:11.691Z,3.47
2018-04-17T18:51:39.986Z,3.83
2018-04-17T18:54:08.417Z,4.10
2018-04-17T18:56:36.825Z,4.70
2018-04-17T18:59:05.514Z,2.77
2018-04-17T19:01:35.606Z,4.43
2018-04-17T19:04:03.906Z,3.53
2018-04-17T19:06:32.663Z,4.40
2018-04-17T19:09:01.568Z,4.50
2018-04-17T19:11:30.331Z,4.90
2018-04-17T19:13:58.641Z,4.30
2018-04-17T19:16:26.968Z,3.87
2018-04-17T19:18:55.238Z,3.70
2018-04-17T19:21:24.163Z,4.97
2018-04-17T19:23:52.446Z,4.80
2018-04-17T19:26:20.712Z,4.40
2018-04-17T19:28:49.465Z,5.30
2018-04-17T19:31:18.765Z,4.93
2018-04-17T19:33:47.303Z,4.33
2018-04-17T19:36:15.604Z,4.50
2018-04-17T19:38:44.288Z,5.30
2018-04-17T19:41:12.614Z,5.03
2018-04-17T19:43:40.896Z,4.90
2018-04-17T19:46:09.178Z,4.40
2018-04-17T19:48:37.495Z,5.10
2018-04-17T19:51:05.817Z,5.37
2018-04-17T19:53:34.104Z,5.10
2018-04-17T19:56:02.572Z,5.10
2018-04-17T19:58:30.870Z,5.73
2018-04-17T20:00:59.204Z,5.03
2018-04-17T20:03:27.518Z,5.60
2018-04-17T20:05:55.813Z,5.53
2018-04-17T20:08:24.088Z,5.67
2018-04-17T20:10:52.469Z,5.60
2018-04-17T20:13:20.744Z,4.40
2018-04-17T20:15:49.067Z,5.20
2018-04-17T20:18:17.372Z,6.53
2018-04-17T20:20:45.659Z,5.73
2018-04-17T20:23:13.986Z,6.40
2018-04-17T20:25:42.271Z,5.83
2018-04-17T20:28:10.540Z,5.63
2018-04-17T20:30:39.223Z,5.30
2018-04-17T20:33:07.905Z,7.17
2018-04-17T20:35:36.620Z,6.20
2018-04-17T20:38:04.960Z,6.23
2018-04-17T20:40:33.697Z,6.90
2018-04-17T20:43:02.013Z,4.70
2018-04-17T20:45:30.301Z,6.90
2018-04-17T20:47:58.976Z,4.20
2018-04-17T20:50:27.273Z,4.70
2018-04-17T20:52:55.954Z,4.20
2018-04-17T20:55:24.699Z,4.30
2018-04-17T20:57:53.187Z,4.30
2018-04-17T21:00:21.839Z,4.10
2018-04-17T21:02:50.283Z,4.23
2018-04-17T21:05:19.020Z,4.17
2018-04-17T21:07:47.313Z,4.40
2018-04-17T21:10:15.635Z,4.03
2018-04-17T21:12:44.331Z,4.23
2018-04-17T21:15:12.784Z,4.03
2018-04-17T21:17:41.479Z,4.07
2018-04-17T21:20:10.274Z,3.67
2018-04-17T21:22:38.958Z,3.83
2018-04-17T21:25:07.259Z,4.00
2018-04-17T21:27:35.582Z,3.90
2018-04-17T21:30:03.870Z,3.87
2018-04-17T21:32:32.631Z,4.47
2018-04-17T21:35:01.003Z,4.30
2018-04-17T21:37:29.286Z,4.03
2018-04-17T21:39:57.575Z,4.40
2018-04-17T21:42:25.890Z,4.30
2018-04-17T21:44:58.153Z,4.03
2018-04-17T21:47:27.109Z,4.47
2018-04-17T21:50:00.897Z,5.40
2018-04-17T21:52:32.025Z,4.80
2018-04-17T21:55:00.361Z,4.30
2018-04-17T21:57:29.099Z,4.83
2018-04-17T21:59:57.400Z,5.00
2018-04-17T22:02:26.185Z,4.70
2018-04-17T22:04:55.032Z,4.80
2018-04-17T22:07:24.291Z,5.30
2018-04-17T22:09:53.007Z,4.97
2018-04-17T22:12:21.338Z,5.07
2018-04-17T22:14:49.640Z,5.10
2018-04-17T22:17:18.324Z,5.13
2018-04-17T22:19:47.002Z,5.13
2018-04-17T22:22:15.346Z,4.90
2018-04-17T22:24:43.666Z,5.10
2018-04-17T22:27:12.428Z,5.30
2018-04-17T22:29:40.734Z,5.17
2018-04-17T22:32:09.427Z,4.97
2018-04-17T22:34:38.102Z,4.93
2018-04-17T22:37:06.819Z,5.60
2018-04-17T22:39:35.090Z,5.50
2018-04-17T22:42:03.361Z,5.13
2018-04-17T22:44:31.699Z,5.73
2018-04-17T22:46:59.974Z,5.10
2018-04-17T22:49:28.250Z,5.70
2018-04-17T22:51:57.118Z,5.97
2018-04-17T22:54:25.417Z,5.93
2018-04-17T22:56:53.861Z,5.47
2018-04-17T22:59:22.138Z,5.50
2018-04-17T23:01:50.583Z,5.60
2018-04-17T23:04:19.305Z,5.43
2018-04-17T23:06:47.594Z,5.87
2018-04-17T23:09:16.527Z,5.77
2018-04-17T23:11:45.058Z,5.90
2018-04-17T23:14:13.375Z,5.60
2018-04-17T23:16:41.727Z,5.83
2018-04-17T23:19:10.030Z,5.50
2018-04-17T23:21:38.708Z,5.00
2018-04-17T23:24:06.976Z,5.60
2018-04-17T23:26:35.265Z,5.30
2018-04-17T23:29:03.940Z,5.43
2018-04-17T23:31:32.237Z,5.20
2018-04-17T23:34:00.928Z,5.47
2018-04-17T23:36:29.605Z,5.27
2018-04-17T23:38:58.403Z,5.50
2018-04-17T23:41:27.109Z,5.80
2018-04-17T23:46:30.549Z,5.00
2018-04-17T23:48:58.870Z,4.97
2018-04-17T23:51:27.140Z,5.77
2018-04-17T23:53:55.446Z,5.53
2018-04-17T23:56:23.730Z,4.83
2018-04-17T23:58:52.008Z,5.67
